Time;durP1;ratioP1;P1;durP2;ratioP2;P2;SDS_P1;SDS_P2;PMS_P1;PMS_P2;Temp;Humidity;BMP_temperature;BMP_pressure;BME280_temperature;BME280_humidity;BME280_pressure;Samples;Min_cycle;Max_cycle;Signal;HPM_P1;HPM_P2
2022/08/29 00:00:19;;;;;;;1.55;0.85;;;;;;;17.91;56.64;101578.84;5013542;28;20053;-52
2022/08/29 00:02:49;;;;;;;1.38;0.80;;;;;;;17.95;56.32;101574.66;5014213;28;20394;-47
2022/08/29 00:05:16;;;;;;;1.98;1.05;;;;;;;17.95;56.37;101580.91;5014465;28;20132;-49
2022/08/29 00:07:41;;;;;;;9.30;1.85;;;;;;;17.97;56.29;101580.72;5014627;28;20060;-48
2022/08/29 00:10:08;;;;;;;1.67;1.10;;;;;;;17.99;55.97;101578.59;5014486;28;20069;-50
2022/08/29 00:12:34;;;;;;;4.32;1.20;;;;;;;17.95;56.06;101580.09;5014292;28;20037;-48
2022/08/29 00:15:00;;;;;;;1.10;0.90;;;;;;;17.84;55.80;101567.97;5013247;28;20076;-53
2022/08/29 00:17:26;;;;;;;1.70;1.05;;;;;;;17.86;56.07;101581.38;5013942;28;20033;-50
2022/08/29 00:19:51;;;;;;;2.35;0.70;;;;;;;17.71;56.39;101566.13;5014292;28;20026;-51
2022/08/29 00:22:17;;;;;;;2.05;1.15;;;;;;;17.77;56.43;101580.75;5013854;28;20118;-48
2022/08/29 00:24:43;;;;;;;1.70;0.98;;;;;;;17.73;56.59;101579.50;5013013;28;20044;-48
2022/08/29 00:27:09;;;;;;;2.05;0.90;;;;;;;17.56;56.93;101560.94;5015006;28;20092;-48
2022/08/29 00:29:35;;;;;;;6.50;1.60;;;;;;;17.65;57.18;101579.75;5013919;28;20033;-49
2022/08/29 00:32:00;;;;;;;1.20;1.10;;;;;;;17.48;57.77;101580.22;5014043;28;20113;-52
2022/08/29 00:34:26;;;;;;;3.97;1.60;;;;;;;17.40;58.74;101570.41;5014185;28;20050;-49
2022/08/29 00:36:53;;;;;;;1.33;1.10;;;;;;;17.13;58.81;101574.19;5012854;28;20093;-48
2022/08/29 00:39:19;;;;;;;2.45;1.30;;;;;;;17.08;58.71;101565.84;5014340;28;20416;-49
2022/08/29 00:41:45;;;;;;;4.28;1.15;;;;;;;17.02;59.84;101587.34;5014557;28;20061;-49
2022/08/29 00:44:14;;;;;;;1.52;1.00;;;;;;;16.94;59.58;101581.31;5013936;28;20037;-51
2022/08/29 00:46:48;;;;;;;2.20;1.48;;;;;;;16.81;61.47;101593.78;5014362;28;20033;-51
2022/08/29 00:49:29;;;;;;;2.45;1.33;;;;;;;16.85;60.56;101585.28;5014680;28;20108;-48
2022/08/29 00:51:57;;;;;;;3.05;1.00;;;;;;;16.91;59.42;101574.41;5029569;28;20336;-49
2022/08/29 00:54:24;;;;;;;1.27;0.90;;;;;;;16.81;60.57;101585.63;5012975;28;20100;-48
2022/08/29 00:56:51;;;;;;;1.63;1.10;;;;;;;16.83;59.92;101586.28;5017014;28;20342;-48
2022/08/29 00:59:22;;;;;;;2.13;1.00;;;;;;;16.82;59.59;101572.91;5016654;28;20056;-48
2022/08/29 01:01:47;;;;;;;2.72;0.75;;;;;;;16.93;59.42;101585.06;5015297;28;20128;-48
2022/08/29 01:04:14;;;;;;;2.83;1.20;;;;;;;16.84;60.30;101581.69;5016581;28;20076;-48
2022/08/29 01:06:41;;;;;;;1.10;0.95;;;;;;;16.90;59.80;101591.75;5016565;28;20030;-49
2022/08/29 01:09:08;;;;;;;1.90;1.05;;;;;;;16.90;60.06;101599.88;5016555;28;20121;-48
2022/08/29 01:14:23;;;;;;;2.28;1.20;;;;;;;16.73;60.94;101599.38;4987768;28;20037;-49
2022/08/29 01:16:51;;;;;;;1.33;1.00;;;;;;;16.84;60.08;101595.25;5016857;28;20029;-50
2022/08/29 01:19:30;;;;;;;1.55;0.93;;;;;;;16.89;60.50;101603.63;5015091;28;20080;-49
2022/08/29 01:22:05;;;;;;;3.90;1.40;;;;;;;16.75;61.43;101596.47;5016247;28;20410;-49
2022/08/29 01:24:50;;;;;;;2.90;1.60;;;;;;;16.64;62.75;101592.47;5016580;28;20045;-49
2022/08/29 01:27:22;;;;;;;3.22;1.20;;;;;;;16.71;61.03;101603.34;5015394;28;20026;-53
2022/08/29 01:29:48;;;;;;;3.83;1.38;;;;;;;16.59;60.88;101567.88;5016077;28;20041;-51
2022/08/29 01:32:15;;;;;;;2.15;1.40;;;;;;;16.61;61.43;101585.59;5016326;28;20033;-48
2022/08/29 01:34:41;;;;;;;2.35;1.38;;;;;;;16.69;61.17;101590.00;5015840;28;20537;-49
2022/08/29 01:37:10;;;;;;;1.80;1.30;;;;;;;16.60;62.17;101596.66;5016113;28;20042;-49
2022/08/29 01:39:40;;;;;;;3.33;1.35;;;;;;;16.54;62.49;101602.91;5015976;28;20026;-50
2022/08/29 01:42:11;;;;;;;2.30;1.13;;;;;;;16.55;62.27;101591.88;5014843;28;20459;-51
2022/08/29 01:44:38;;;;;;;4.65;1.70;;;;;;;16.63;62.03;101601.69;5016016;28;20029;-50
2022/08/29 01:47:05;;;;;;;3.20;1.77;;;;;;;16.59;62.12;101601.25;5014829;28;20410;-50
2022/08/29 01:49:33;;;;;;;3.35;1.20;;;;;;;16.62;62.38;101600.00;5030467;28;20525;-51
2022/08/29 01:51:59;;;;;;;6.97;1.60;;;;;;;16.51;62.90;101592.47;5015358;28;20041;-49
2022/08/29 01:54:25;;;;;;;1.55;1.30;;;;;;;16.48;62.61;101598.31;4968201;28;1415403;-49
2022/08/29 01:56:52;;;;;;;3.63;1.50;;;;;;;16.35;63.33;101597.22;5016942;28;20038;-50
2022/08/29 01:59:22;;;;;;;3.65;1.50;;;;;;;15.89;63.85;101546.41;5016512;28;20036;-51
2022/08/29 02:01:53;;;;;;;3.92;1.45;;;;;;;16.01;64.77;101584.59;5016515;28;20034;-48
2022/08/29 02:04:19;;;;;;;2.50;1.40;;;;;;;15.94;64.55;101581.88;5016649;28;20044;-50
2022/08/29 02:06:45;;;;;;;4.97;2.05;;;;;;;15.86;64.82;101582.88;5016697;28;20026;-49
2022/08/29 02:09:11;;;;;;;2.75;1.60;;;;;;;15.93;65.06;101599.16;5016972;28;20093;-49
2022/08/29 02:11:38;;;;;;;4.53;1.90;;;;;;;15.92;65.31;101604.78;5015060;28;20057;-52
2022/08/29 02:14:05;;;;;;;4.25;1.73;;;;;;;15.84;65.48;101594.94;5016405;28;20030;-53
2022/08/29 02:16:31;;;;;;;1.63;1.33;;;;;;;15.85;65.29;101596.63;5016363;28;20033;-49
2022/08/29 02:18:58;;;;;;;2.65;1.50;;;;;;;15.90;65.63;101599.56;5016674;28;20030;-48
2022/08/29 02:21:27;;;;;;;6.43;2.30;;;;;;;15.81;65.68;101592.66;5016897;28;20463;-49
2022/08/29 02:23:54;;;;;;;2.30;1.73;;;;;;;15.80;65.67;101602.63;4998620;28;20037;-49
2022/08/29 02:26:21;;;;;;;2.13;1.40;;;;;;;15.95;64.79;101597.06;5015741;28;20026;-49
2022/08/29 02:28:49;;;;;;;4.78;1.58;;;;;;;15.97;65.17;101597.72;5016052;28;20226;-49
2022/08/29 02:31:15;;;;;;;3.60;1.50;;;;;;;15.98;64.93;101595.84;5015857;28;20025;-47
2022/08/29 02:33:41;;;;;;;7.03;1.92;;;;;;;15.98;65.02;101583.13;5015798;28;20482;-48
2022/08/29 02:36:07;;;;;;;2.95;1.80;;;;;;;15.81;65.61;101579.09;5016620;28;20036;-50
2022/08/29 02:38:34;;;;;;;4.30;1.42;;;;;;;15.85;65.76;101599.34;5017444;28;20041;-49
2022/08/29 02:41:01;;;;;;;2.42;1.75;;;;;;;15.77;65.87;101588.69;5017573;28;20417;-51
2022/08/29 02:43:27;;;;;;;2.67;1.40;;;;;;;15.74;65.92;101599.91;5018368;28;20053;-48
2022/08/29 02:45:53;;;;;;;2.88;1.27;;;;;;;15.89;65.79;101608.72;5016536;28;20471;-47
2022/08/29 02:48:20;;;;;;;4.03;2.05;;;;;;;15.82;65.78;101602.44;5014928;28;20026;-47
2022/08/29 02:50:49;;;;;;;3.35;1.77;;;;;;;15.83;66.33;101604.13;5016244;28;20037;-48
2022/08/29 02:53:17;;;;;;;4.10;1.70;;;;;;;15.77;65.96;101599.50;5016062;28;20495;-47
2022/08/29 02:55:43;;;;;;;3.22;2.00;;;;;;;15.93;65.76;101612.69;5016524;28;20103;-47
2022/08/29 02:58:09;;;;;;;4.85;1.65;;;;;;;15.93;65.77;101601.84;5014588;28;20475;-48
2022/08/29 03:00:35;;;;;;;2.55;1.50;;;;;;;15.87;66.12;101600.78;5015835;28;20041;-49
2022/08/29 03:03:02;;;;;;;2.28;1.48;;;;;;;15.89;65.99;101606.00;5015763;28;20038;-48
2022/08/29 03:05:32;;;;;;;3.30;1.92;;;;;;;15.96;65.74;101601.47;5015940;28;20052;-49
2022/08/29 03:07:58;;;;;;;7.07;1.77;;;;;;;16.00;65.45;101599.19;5014732;28;20038;-47
2022/08/29 03:10:24;;;;;;;1.65;1.15;;;;;;;15.97;65.38;101596.88;5015942;28;20037;-48
2022/08/29 03:12:50;;;;;;;3.72;1.75;;;;;;;16.13;64.88;101601.94;5014342;28;20117;-49
2022/08/29 03:15:17;;;;;;;5.18;1.88;;;;;;;16.22;64.41;101603.44;5015104;28;20033;-48
2022/08/29 03:17:45;;;;;;;2.13;1.40;;;;;;;16.19;65.00;101594.88;5013812;28;20030;-49
2022/08/29 03:20:13;;;;;;;3.75;1.65;;;;;;;16.13;65.72;101585.69;5016668;28;20402;-51
2022/08/29 03:22:40;;;;;;;1.73;1.30;;;;;;;16.16;65.17;101592.59;5015542;28;20108;-51
2022/08/29 03:25:07;;;;;;;1.27;1.13;;;;;;;16.23;64.67;101590.72;5015957;28;20137;-49
2022/08/29 03:27:34;;;;;;;4.10;1.65;;;;;;;16.26;64.52;101590.31;5015049;28;20034;-48
2022/08/29 03:30:00;;;;;;;2.97;1.40;;;;;;;16.20;65.08;101591.16;5014801;28;20037;-48
2022/08/29 03:32:26;;;;;;;2.05;1.50;;;;;;;16.13;65.32;101590.28;5014250;28;20030;-48
2022/08/29 03:34:53;;;;;;;3.67;1.30;;;;;;;16.15;64.97;101588.19;5013790;28;20045;-50
2022/08/29 03:37:19;;;;;;;4.15;1.48;;;;;;;16.17;64.97;101591.53;5015109;28;20106;-50
2022/08/29 03:39:46;;;;;;;2.35;1.63;;;;;;;16.00;65.59;101559.38;5014623;28;20037;-52
2022/08/29 03:42:11;;;;;;;2.13;1.70;;;;;;;16.18;65.45;101585.09;5015308;28;20033;-51
2022/08/29 03:44:39;;;;;;;7.38;1.88;;;;;;;15.99;65.76;101573.97;5015056;28;20037;-51
2022/08/29 03:47:06;;;;;;;2.20;1.20;;;;;;;16.09;64.84;101578.19;5013640;28;20038;-51
2022/08/29 03:49:33;;;;;;;3.78;1.70;;;;;;;16.14;64.87;101584.66;5014790;28;20033;-52
2022/08/29 03:51:59;;;;;;;2.15;1.40;;;;;;;16.18;64.89;101591.34;5014380;28;20030;-52
2022/08/29 03:54:25;;;;;;;3.85;1.45;;;;;;;16.13;65.49;101593.00;5014513;28;20042;-49
2022/08/29 03:56:51;;;;;;;1.30;1.15;;;;;;;15.95;64.97;101559.13;5013163;28;20022;-49
2022/08/29 03:59:18;;;;;;;1.83;1.52;;;;;;;16.03;66.08;101585.25;5014674;28;20030;-49
2022/08/29 04:01:46;;;;;;;4.07;2.00;;;;;;;15.84;67.04;101586.81;5013718;28;20037;-50
2022/08/29 04:05:05;;;;;;;2.13;1.80;;;;;;;15.83;66.66;101593.28;5013221;28;20038;-53
2022/08/29 04:07:00;;;;;;;2.22;1.40;;;;;;;15.86;66.74;101595.56;5012947;28;20467;-49
2022/08/29 04:09:26;;;;;;;2.92;1.80;;;;;;;15.91;66.03;101595.81;5014864;28;20113;-51
2022/08/29 04:11:52;;;;;;;2.88;1.70;;;;;;;15.90;66.87;101596.88;5014240;28;20117;-49
2022/08/29 04:14:19;;;;;;;1.58;1.48;;;;;;;15.86;67.38;101601.84;5013413;28;20137;-48
2022/08/29 04:16:48;;;;;;;3.97;2.38;;;;;;;15.83;67.22;101598.69;5013208;28;20034;-49
2022/08/29 04:19:15;;;;;;;4.35;1.70;;;;;;;15.74;67.26;101581.75;5014257;28;20061;-49
2022/08/29 04:21:41;;;;;;;3.70;2.28;;;;;;;15.51;68.45;101578.47;5014502;28;20030;-49
2022/08/29 04:24:07;;;;;;;4.63;2.00;;;;;;;15.44;68.84;101578.44;5013243;28;20064;-49
2022/08/29 04:26:33;;;;;;;6.28;2.38;;;;;;;15.44;69.17;101583.84;5014399;28;20045;-47
2022/08/29 04:29:00;;;;;;;1.75;1.65;;;;;;;15.50;69.09;101591.19;5014018;28;20037;-50
2022/08/29 04:31:26;;;;;;;5.30;2.55;;;;;;;15.39;69.16;101573.59;5015847;28;20034;-51
2022/08/29 04:33:52;;;;;;;4.88;2.20;;;;;;;15.47;69.21;101596.97;5016547;28;20029;-52
2022/08/29 04:36:17;;;;;;;3.72;2.30;;;;;;;15.35;69.52;101587.75;5013017;28;20034;-50
2022/08/29 04:38:43;;;;;;;3.30;2.20;;;;;;;15.42;69.39;101594.06;5014684;28;20467;-47
2022/08/29 04:41:13;;;;;;;5.03;2.40;;;;;;;15.31;70.25;101598.13;5013838;28;20095;-47
2022/08/29 04:43:40;;;;;;;6.97;2.40;;;;;;;15.27;69.96;101594.97;5017965;28;20030;-48
2022/08/29 04:46:06;;;;;;;6.82;2.42;;;;;;;15.16;70.68;101592.81;5022533;28;20411;-47
2022/08/29 04:48:32;;;;;;;6.45;2.92;;;;;;;15.19;70.44;101605.97;5014241;28;20026;-47
2022/08/29 04:51:00;;;;;;;3.15;2.13;;;;;;;15.24;69.72;101595.38;5014382;28;20030;-47
2022/08/29 04:53:27;;;;;;;5.28;2.40;;;;;;;15.14;70.81;101597.59;5012347;28;20049;-48
2022/08/29 04:56:05;;;;;;;3.13;2.60;;;;;;;15.06;71.35;101595.88;5012476;28;20541;-50
2022/08/29 04:58:31;;;;;;;3.90;2.63;;;;;;;15.00;71.63;101598.50;5012436;28;20042;-48
2022/08/29 05:00:56;;;;;;;4.20;2.58;;;;;;;14.93;71.26;101587.63;5013848;28;20034;-47
2022/08/29 05:03:22;;;;;;;8.52;3.03;;;;;;;14.93;72.09;101611.13;5012733;28;20026;-48
2022/08/29 05:05:58;;;;;;;5.13;2.60;;;;;;;14.90;72.52;101621.31;5013092;28;20030;-49
2022/08/29 05:08:24;;;;;;;2.58;2.10;;;;;;;14.83;72.31;101609.59;5013499;28;20045;-49
2022/08/29 05:10:50;;;;;;;4.90;1.77;;;;;;;14.98;71.17;101620.34;5014227;28;20038;-47
2022/08/29 05:13:16;;;;;;;6.45;2.22;;;;;;;15.04;71.04;101619.59;5012525;28;20344;-47
2022/08/29 05:15:43;;;;;;;2.33;1.85;;;;;;;15.03;71.47;101633.31;5013908;28;20387;-48
2022/08/29 05:18:10;;;;;;;5.88;2.60;;;;;;;14.96;71.51;101616.16;5013823;28;20037;-47
2022/08/29 05:20:40;;;;;;;4.53;2.40;;;;;;;15.00;71.95;101634.50;5012836;28;20370;-50
2022/08/29 05:23:06;;;;;;;4.07;2.03;;;;;;;14.96;71.58;101629.69;5013927;28;20042;-46
2022/08/29 05:25:32;;;;;;;4.57;2.30;;;;;;;15.09;70.60;101635.22;5012534;28;20030;-49
2022/08/29 05:27:58;;;;;;;5.00;2.10;;;;;;;15.16;70.81;101638.81;5013516;28;20033;-48
2022/08/29 05:30:24;;;;;;;3.45;1.60;;;;;;;15.18;70.70;101635.94;5012461;28;20034;-52
2022/08/29 05:32:51;;;;;;;4.72;2.63;;;;;;;15.14;71.49;101631.94;5013383;28;20083;-52
2022/08/29 05:35:17;;;;;;;3.40;1.90;;;;;;;15.23;70.92;101637.00;5012549;28;20030;-50
2022/08/29 05:37:43;;;;;;;5.90;2.10;;;;;;;15.24;71.14;101630.56;5028527;28;20029;-50
2022/08/29 05:40:09;;;;;;;4.45;2.33;;;;;;;15.36;70.35;101632.72;5014869;28;20053;-50
2022/08/29 05:42:35;;;;;;;1.90;1.67;;;;;;;15.36;69.65;101621.88;5017094;28;20438;-50
2022/08/29 05:45:03;;;;;;;3.00;2.17;;;;;;;15.51;69.46;101632.63;5017439;28;20065;-48
2022/08/29 05:47:30;;;;;;;1.75;1.60;;;;;;;15.56;69.12;101633.69;5017004;28;20037;-48
2022/08/29 05:49:56;;;;;;;4.13;1.95;;;;;;;15.57;69.83;101629.97;5016168;28;20406;-52
2022/08/29 05:52:23;;;;;;;4.85;2.50;;;;;;;15.35;71.08;101612.13;5016688;28;20040;-48
